Wetterstation Vordersexau
Wetterdaten: Woche 13.10.14 - 19.10.14 (KW42)
Datum Zeit Temp. A. Feuchte A. Luftdruck Regen Wind Richtung Taupunkt Windchill Windben
13.10.2014 00:00 10,9 C 83 % 979,2 hPa 0,0 l/m 0,0 km/h S-SW 8,1 C 10,9 C 0,0 km/h
13.10.2014 01:00 10,7 C 82 % 979,2 hPa 0,0 l/m 0,0 km/h O-SO 7,8 C 10,7 C 0,0 km/h
13.10.2014 02:00 11,8 C 80 % 980,0 hPa 0,0 l/m 0,0 km/h SO 8,5 C 11,8 C 0,0 km/h
13.10.2014 03:00 11,8 C 80 % 978,5 hPa 0,0 l/m 0,0 km/h SO 8,5 C 11,8 C 0,0 km/h
13.10.2014 04:00 11,9 C 78 % 978,3 hPa 0,0 l/m 0,0 km/h W 8,2 C 11,9 C 0,0 km/h
13.10.2014 05:00 11,3 C 78 % 979,7 hPa 0,0 l/m 3,2 km/h O-SO 7,6 C 11,3 C 1,8 km/h
13.10.2014 06:00 12,3 C 76 % 980,9 hPa 0,0 l/m 0,0 km/h NO 8,2 C 12,3 C 0,0 km/h
13.10.2014 07:00 12,9 C 74 % 980,3 hPa 0,0 l/m 0,0 km/h NO 8,4 C 12,9 C 0,0 km/h
13.10.2014 08:00 13,2 C 73 % 981,2 hPa 0,2 l/m 0,0 km/h SO 8,5 C 13,2 C 0,0 km/h
13.10.2014 09:00 14,4 C 77 % 981,0 hPa 0,0 l/m 0,0 km/h O-SO 10,4 C 14,4 C 0,0 km/h
13.10.2014 10:00 15,5 C 82 % 980,0 hPa 0,0 l/m 0,0 km/h S-SO 12,4 C 15,5 C 0,0 km/h
13.10.2014 11:00 15,5 C 85 % 981,1 hPa 0,2 l/m 9,7 km/h N-NO 13,0 C 13,8 C 5,4 km/h
13.10.2014 12:00 17,8 C 84 % 981,0 hPa 0,0 l/m 0,0 km/h N-NO 15,1 C 17,8 C 0,0 km/h
13.10.2014 13:00 17,9 C 83 % 980,0 hPa 0,0 l/m 0,0 km/h SO 15,0 C 17,9 C 0,0 km/h
13.10.2014 14:00 20,6 C 77 % 979,2 hPa 0,0 l/m 15,6 km/h W-SW 16,4 C 17,8 C 8,6 km/h
13.10.2014 15:00 23,4 C 63 % 979,1 hPa 0,0 l/m 1,9 km/h SW 15,9 C 23,4 C 1,1 km/h
13.10.2014 16:00 24,1 C 55 % 978,9 hPa 0,0 l/m 4,5 km/h NO 14,5 C 24,1 C 2,5 km/h
13.10.2014 17:00 18,4 C 69 % 978,6 hPa 0,0 l/m 1,9 km/h NO 12,6 C 18,4 C 1,1 km/h
13.10.2014 18:00 14,6 C 79 % 978,7 hPa 0,0 l/m 0,0 km/h O 11,0 C 14,6 C 0,0 km/h
13.10.2014 19:00 13,6 C 83 % 979,0 hPa 0,0 l/m 0,0 km/h O 10,8 C 13,6 C 0,0 km/h
13.10.2014 20:00 12,9 C 84 % 979,5 hPa 0,0 l/m 0,0 km/h O 10,3 C 12,9 C 0,0 km/h
13.10.2014 21:00 12,4 C 85 % 979,6 hPa 0,0 l/m 0,0 km/h O 9,9 C 12,4 C 0,0 km/h
13.10.2014 22:00 12,4 C 85 % 980,1 hPa 0,0 l/m 0,0 km/h O 9,9 C 12,4 C 0,0 km/h
13.10.2014 23:00 12,3 C 85 % 980,6 hPa 0,0 l/m 0,0 km/h O 9,9 C 12,3 C 0,0 km/h
14.10.2014 00:00 11,8 C 85 % 980,4 hPa 0,0 l/m 0,0 km/h O 9,4 C 11,8 C 0,0 km/h
14.10.2014 01:00 11,3 C 85 % 980,7 hPa 0,0 l/m 0,0 km/h O 8,9 C 11,3 C 0,0 km/h
14.10.2014 02:00 11,8 C 84 % 981,1 hPa 0,0 l/m 0,0 km/h SO 9,2 C 11,8 C 0,0 km/h
14.10.2014 03:00 12,1 C 83 % 980,9 hPa 0,0 l/m 0,0 km/h O-SO 9,3 C 12,1 C 0,0 km/h
14.10.2014 04:00 11,9 C 84 % 980,6 hPa 0,0 l/m 0,0 km/h O-SO 9,3 C 11,9 C 0,0 km/h
14.10.2014 05:00 10,8 C 84 % 980,3 hPa 0,0 l/m 0,0 km/h O-SO 8,2 C 10,8 C 0,0 km/h
14.10.2014 06:00 10,1 C 84 % 980,2 hPa 0,0 l/m 0,0 km/h O-NO 7,5 C 10,1 C 0,0 km/h
14.10.2014 07:00 9,8 C 83 % 980,4 hPa 0,0 l/m 0,0 km/h O-NO 7,1 C 9,8 C 0,0 km/h
14.10.2014 08:00 9,9 C 81 % 980,8 hPa 0,0 l/m 0,0 km/h O-SO 6,8 C 9,9 C 0,0 km/h
14.10.2014 09:00 16,8 C 82 % 981,0 hPa 0,0 l/m 0,0 km/h SO 13,7 C 16,8 C 0,0 km/h
14.10.2014 10:00 23,3 C 66 % 981,1 hPa 0,0 l/m 0,0 km/h W-SW 16,6 C 23,3 C 0,0 km/h
14.10.2014 11:00 27,5 C 51 % 980,9 hPa 0,0 l/m 0,0 km/h W-SW 16,4 C 27,5 C 0,0 km/h
14.10.2014 12:00 23,3 C 54 % 980,9 hPa 0,0 l/m 7,1 km/h W-SW 13,5 C 23,1 C 4,0 km/h
14.10.2014 13:00 23,1 C 53 % 980,4 hPa 0,0 l/m 11,0 km/h W-SW 13,0 C 21,8 C 6,1 km/h
14.10.2014 14:00 24,1 C 52 % 980,0 hPa 0,0 l/m 0,0 km/h W-SW 13,6 C 24,1 C 0,0 km/h
14.10.2014 15:00 23,1 C 53 % 979,7 hPa 0,0 l/m 0,0 km/h W-SW 13,0 C 23,1 C 0,0 km/h
14.10.2014 16:00 24,9 C 54 % 979,3 hPa 0,0 l/m 0,0 km/h W-SW 14,9 C 24,9 C 0,0 km/h
14.10.2014 17:00 26,4 C 49 % 979,1 hPa 0,0 l/m 0,0 km/h W-SW 14,8 C 26,4 C 0,0 km/h
14.10.2014 18:00 16,7 C 67 % 979,4 hPa 0,0 l/m 0,0 km/h SO 10,5 C 16,7 C 0,0 km/h
14.10.2014 19:00 13,6 C 79 % 979,5 hPa 0,0 l/m 0,0 km/h SO 10,0 C 13,6 C 0,0 km/h
14.10.2014 20:00 12,1 C 82 % 979,6 hPa 0,0 l/m 0,0 km/h O-SO 9,1 C 12,1 C 0,0 km/h
14.10.2014 21:00 11,8 C 84 % 979,9 hPa 0,0 l/m 0,0 km/h O 9,2 C 11,8 C 0,0 km/h
14.10.2014 22:00 11,5 C 85 % 979,9 hPa 0,0 l/m 0,0 km/h SO 9,1 C 11,5 C 0,0 km/h
14.10.2014 23:00 11,9 C 85 % 980,2 hPa 0,0 l/m 0,0 km/h O-NO 9,5 C 11,9 C 0,0 km/h
15.10.2014 00:00 12,2 C 85 % 979,9 hPa 0,0 l/m 0,0 km/h O-NO 9,8 C 12,2 C 0,0 km/h
15.10.2014 01:00 12,4 C 85 % 980,2 hPa 0,0 l/m 0,0 km/h O-SO 9,9 C 12,4 C 0,0 km/h
15.10.2014 02:00 11,9 C 85 % 980,3 hPa 0,0 l/m 0,0 km/h O 9,5 C 11,9 C 0,0 km/h
15.10.2014 03:00 11,3 C 85 % 979,9 hPa 0,0 l/m 0,0 km/h O 8,9 C 11,3 C 0,0 km/h
15.10.2014 04:00 10,4 C 85 % 979,5 hPa 0,0 l/m 0,0 km/h O 8,0 C 10,4 C 0,0 km/h
15.10.2014 05:00 10,3 C 85 % 979,9 hPa 0,0 l/m 0,0 km/h SO 7,9 C 10,3 C 0,0 km/h
15.10.2014 06:00 11,0 C 84 % 979,7 hPa 0,0 l/m 4,5 km/h S-SO 8,4 C 11,0 C 2,5 km/h
15.10.2014 07:00 11,6 C 83 % 980,1 hPa 0,0 l/m 0,0 km/h O-SO 8,8 C 11,6 C 0,0 km/h
15.10.2014 08:00 12,5 C 82 % 980,0 hPa 0,0 l/m 0,0 km/h O 9,5 C 12,5 C 0,0 km/h
15.10.2014 09:00 14,0 C 82 % 979,9 hPa 0,0 l/m 0,0 km/h SO 11,0 C 14,0 C 0,0 km/h
15.10.2014 10:00 22,8 C 75 % 979,5 hPa 0,0 l/m 0,0 km/h W-NW 18,1 C 22,8 C 0,0 km/h
15.10.2014 11:00 27,3 C 52 % 979,7 hPa 0,0 l/m 0,0 km/h SW 16,6 C 27,3 C 0,0 km/h
15.10.2014 12:00 24,1 C 56 % 979,3 hPa 0,0 l/m 19,4 km/h W-SW 14,8 C 21,6 C 10,8 km/h
15.10.2014 13:00 23,8 C 57 % 978,7 hPa 0,0 l/m 8,4 km/h W-SW 14,8 C 23,2 C 4,7 km/h
15.10.2014 14:00 22,4 C 59 % 978,5 hPa 0,0 l/m 0,0 km/h W 14,0 C 22,4 C 0,0 km/h
15.10.2014 15:00 22,5 C 60 % 978,4 hPa 0,0 l/m 0,0 km/h W 14,3 C 22,5 C 0,0 km/h
15.10.2014 16:00 24,0 C 56 % 978,1 hPa 0,0 l/m 0,0 km/h W 14,7 C 24,0 C 0,0 km/h
15.10.2014 17:00 18,5 C 68 % 977,9 hPa 0,0 l/m 0,0 km/h W 12,5 C 18,5 C 0,0 km/h
15.10.2014 18:00 16,4 C 76 % 978,3 hPa 0,0 l/m 0,0 km/h O-SO 12,2 C 16,4 C 0,0 km/h
15.10.2014 19:00 15,6 C 82 % 978,4 hPa 0,0 l/m 3,2 km/h S-SO 12,5 C 15,6 C 1,8 km/h
15.10.2014 20:00 15,9 C 81 % 978,6 hPa 0,0 l/m 0,0 km/h S 12,6 C 15,9 C 0,0 km/h
15.10.2014 21:00 15,3 C 81 % 979,0 hPa 0,0 l/m 0,0 km/h O 12,1 C 15,3 C 0,0 km/h
15.10.2014 22:00 14,8 C 83 % 979,1 hPa 0,0 l/m 0,0 km/h O 11,9 C 14,8 C 0,0 km/h
15.10.2014 23:00 14,5 C 84 % 979,6 hPa 0,0 l/m 0,0 km/h O 11,8 C 14,5 C 0,0 km/h
16.10.2014 00:00 14,0 C 85 % 979,7 hPa 0,2 l/m 0,0 km/h O 11,5 C 14,0 C 0,0 km/h
16.10.2014 01:00 13,9 C 85 % 979,7 hPa 0,0 l/m 2,5 km/h S-SO 11,4 C 13,9 C 2,5 km/h
16.10.2014 02:00 14,1 C 84 % 979,6 hPa 0,2 l/m 4,7 km/h SO 11,4 C 14,1 C 4,7 km/h
16.10.2014 03:00 13,9 C 84 % 979,7 hPa 0,0 l/m 0,0 km/h W-SW 11,2 C 13,9 C 0,0 km/h
16.10.2014 04:00 13,9 C 84 % 979,7 hPa 0,2 l/m 0,0 km/h NW 11,2 C 13,9 C 0,0 km/h
16.10.2014 05:00 13,2 C 84 % 979,6 hPa 0,0 l/m 0,0 km/h NO 10,6 C 13,2 C 0,0 km/h
16.10.2014 06:00 13,5 C 82 % 979,6 hPa 0,0 l/m 0,0 km/h S 10,5 C 13,5 C 0,0 km/h
16.10.2014 07:00 14,1 C 81 % 979,7 hPa 0,2 l/m 0,0 km/h S-SW 10,9 C 14,1 C 0,0 km/h
16.10.2014 08:00 15,3 C 83 % 979,9 hPa 0,0 l/m 29,2 km/h S-SO 12,4 C 8,2 C 16,2 km/h
16.10.2014 09:00 16,0 C 85 % 980,3 hPa 0,0 l/m 3,2 km/h S-SW 13,5 C 16,0 C 1,8 km/h
16.10.2014 10:00 16,7 C 81 % 980,5 hPa 0,0 l/m 19,4 km/h S-SW 13,4 C 12,1 C 10,8 km/h
16.10.2014 11:00 17,4 C 79 % 980,4 hPa 0,0 l/m 14,9 km/h S-SO 13,7 C 14,1 C 8,3 km/h
16.10.2014 12:00 16,5 C 83 % 981,2 hPa 0,0 l/m 3,9 km/h S-SW 13,6 C 16,5 C 2,2 km/h
16.10.2014 13:00 17,3 C 81 % 980,9 hPa 0,0 l/m 23,3 km/h W-SW 14,0 C 12,0 C 13,0 km/h
16.10.2014 14:00 16,4 C 82 % 981,2 hPa 0,0 l/m 20,7 km/h W-SW 13,3 C 11,4 C 11,5 km/h
16.10.2014 15:00 16,9 C 82 % 981,4 hPa 0,0 l/m 2,6 km/h W-SW 13,8 C 16,9 C 1,4 km/h
16.10.2014 16:00 17,8 C 80 % 981,2 hPa 0,0 l/m 14,3 km/h W-SW 14,3 C 14,8 C 7,9 km/h
16.10.2014 17:00 17,1 C 81 % 981,2 hPa 0,0 l/m 12,3 km/h S-SW 13,8 C 14,6 C 6,8 km/h
16.10.2014 18:00 16,6 C 82 % 981,5 hPa 0,0 l/m 3,9 km/h S-SO 13,5 C 16,6 C 2,2 km/h
16.10.2014 19:00 17,1 C 81 % 981,8 hPa 0,0 l/m 0,0 km/h S 13,8 C 17,1 C 0,0 km/h
16.10.2014 20:00 16,9 C 81 % 981,6 hPa 0,0 l/m 11,2 km/h W-SW 13,6 C 14,8 C 11,2 km/h
16.10.2014 21:00 16,3 C 83 % 982,2 hPa 0,0 l/m 0,0 km/h S-SO 13,4 C 16,3 C 0,0 km/h
16.10.2014 22:00 15,3 C 84 % 982,3 hPa 0,2 l/m 1,1 km/h NO 12,6 C 15,3 C 1,1 km/h
16.10.2014 23:00 14,6 C 85 % 981,0 hPa 0,0 l/m 0,0 km/h O-SO 12,1 C 14,6 C 0,0 km/h
17.10.2014 00:00 14,3 C 84 % 981,0 hPa 0,0 l/m 0,0 km/h O-SO 11,6 C 14,3 C 0,0 km/h
17.10.2014 01:00 13,3 C 85 % 980,3 hPa 0,2 l/m 0,0 km/h O-NO 10,8 C 13,3 C 0,0 km/h
17.10.2014 02:00 12,8 C 84 % 979,2 hPa 0,4 l/m 0,0 km/h SO 10,2 C 12,8 C 0,0 km/h
17.10.2014 03:00 12,4 C 83 % 978,0 hPa 0,6 l/m 0,0 km/h SO 9,6 C 12,4 C 0,0 km/h
17.10.2014 04:00 12,4 C 83 % 977,4 hPa 0,4 l/m 0,0 km/h NW 9,6 C 12,4 C 0,0 km/h
17.10.2014 05:00 12,4 C 81 % 978,5 hPa 1,5 l/m 0,0 km/h W-NW 9,2 C 12,4 C 0,0 km/h
17.10.2014 06:00 12,2 C 80 % 981,9 hPa 1,9 l/m 0,0 km/h W 8,9 C 12,2 C 0,0 km/h
17.10.2014 07:00 12,3 C 78 % 984,4 hPa 0,0 l/m 1,3 km/h W-SW 8,6 C 12,3 C 0,7 km/h
17.10.2014 08:00 12,5 C 77 % 985,9 hPa 0,0 l/m 0,0 km/h S-SO 8,6 C 12,5 C 0,0 km/h
17.10.2014 09:00 14,3 C 77 % 987,3 hPa 0,0 l/m 0,0 km/h SO 10,3 C 14,3 C 0,0 km/h
17.10.2014 10:00 20,6 C 75 % 988,4 hPa 0,0 l/m 0,0 km/h W 16,0 C 20,6 C 0,0 km/h
17.10.2014 11:00 19,7 C 71 % 988,9 hPa 0,0 l/m 3,2 km/h W 14,3 C 19,7 C 1,8 km/h
17.10.2014 12:00 19,0 C 75 % 988,9 hPa 0,0 l/m 0,6 km/h W 14,5 C 19,0 C 0,4 km/h
17.10.2014 13:00 21,8 C 65 % 988,7 hPa 0,0 l/m 0,0 km/h W-SW 14,9 C 21,8 C 0,0 km/h
17.10.2014 14:00 24,8 C 57 % 988,5 hPa 0,0 l/m 0,0 km/h W 15,7 C 24,8 C 0,0 km/h
17.10.2014 15:00 21,3 C 60 % 988,8 hPa 0,0 l/m 0,0 km/h W 13,2 C 21,3 C 0,0 km/h
17.10.2014 16:00 27,0 C 52 % 988,5 hPa 0,0 l/m 0,0 km/h W 16,3 C 27,0 C 0,0 km/h
17.10.2014 17:00 22,4 C 58 % 988,5 hPa 0,0 l/m 0,0 km/h W-SW 13,7 C 22,4 C 0,0 km/h
17.10.2014 18:00 14,8 C 76 % 989,4 hPa 0,0 l/m 0,0 km/h SO 10,6 C 14,8 C 0,0 km/h
17.10.2014 19:00 12,9 C 83 % 989,3 hPa 0,0 l/m 0,0 km/h SO 10,1 C 12,9 C 0,0 km/h
17.10.2014 20:00 11,8 C 84 % 989,7 hPa 0,0 l/m 0,0 km/h SO 9,2 C 11,8 C 0,0 km/h
17.10.2014 21:00 11,3 C 85 % 989,9 hPa 0,0 l/m 0,0 km/h SO 8,9 C 11,3 C 0,0 km/h
17.10.2014 22:00 10,9 C 85 % 990,1 hPa 0,0 l/m 0,0 km/h O-SO 8,5 C 10,9 C 0,0 km/h
17.10.2014 23:00 10,2 C 85 % 990,6 hPa 0,0 l/m 0,0 km/h O-NO 7,8 C 10,2 C 0,0 km/h
18.10.2014 00:00 9,8 C 85 % 990,5 hPa 0,0 l/m 0,0 km/h O-NO 7,4 C 9,8 C 0,0 km/h
18.10.2014 01:00 9,6 C 84 % 990,6 hPa 0,0 l/m 0,0 km/h O 7,0 C 9,6 C 0,0 km/h
18.10.2014 02:00 9,1 C 84 % 990,8 hPa 0,0 l/m 0,0 km/h O 6,5 C 9,1 C 0,0 km/h
18.10.2014 03:00 8,4 C 84 % 990,7 hPa 0,0 l/m 0,0 km/h O 5,9 C 8,4 C 0,0 km/h
18.10.2014 04:00 8,1 C 84 % 990,9 hPa 0,0 l/m 0,0 km/h O-NO 5,6 C 8,1 C 0,0 km/h
18.10.2014 05:00 8,3 C 83 % 991,3 hPa 0,0 l/m 0,0 km/h O-NO 5,6 C 8,3 C 0,0 km/h
18.10.2014 06:00 8,5 C 82 % 991,3 hPa 0,0 l/m 0,0 km/h O-NO 5,6 C 8,5 C 0,0 km/h
18.10.2014 07:00 8,3 C 82 % 991,5 hPa 0,0 l/m 0,0 km/h O-NO 5,4 C 8,3 C 0,0 km/h
18.10.2014 08:00 9,3 C 81 % 991,9 hPa 0,0 l/m 0,0 km/h SO 6,2 C 9,3 C 0,0 km/h
18.10.2014 09:00 14,5 C 71 % 992,4 hPa 0,0 l/m 3,2 km/h NO 9,3 C 14,5 C 1,8 km/h
18.10.2014 10:00 23,5 C 72 % 992,3 hPa 0,0 l/m 0,0 km/h W-NW 18,2 C 23,5 C 0,0 km/h
18.10.2014 11:00 25,8 C 58 % 992,0 hPa 0,0 l/m 0,0 km/h W-NW 16,9 C 25,8 C 0,0 km/h
18.10.2014 12:00 25,7 C 57 % 992,0 hPa 0,0 l/m 0,0 km/h S 16,5 C 25,7 C 0,0 km/h
18.10.2014 13:00 25,5 C 58 % 991,7 hPa 0,0 l/m 0,0 km/h W 16,6 C 25,5 C 0,0 km/h
18.10.2014 14:00 27,1 C 54 % 991,1 hPa 0,0 l/m 0,0 km/h S-SW 17,0 C 27,1 C 0,0 km/h
18.10.2014 15:00 30,4 C 48 % 990,9 hPa 0,0 l/m 0,0 km/h W 18,1 C 30,4 C 0,0 km/h
18.10.2014 16:00 29,9 C 47 % 990,7 hPa 0,0 l/m 0,0 km/h W 17,3 C 29,9 C 0,0 km/h
18.10.2014 17:00 29,5 C 49 % 990,8 hPa 0,0 l/m 0,0 km/h W 17,6 C 29,5 C 0,0 km/h
18.10.2014 18:00 18,1 C 70 % 991,0 hPa 0,0 l/m 0,0 km/h O 12,5 C 18,1 C 0,0 km/h
18.10.2014 19:00 15,2 C 80 % 991,7 hPa 0,0 l/m 0,0 km/h O-NO 11,8 C 15,2 C 0,0 km/h
18.10.2014 20:00 14,0 C 83 % 992,1 hPa 0,0 l/m 0,0 km/h O-NO 11,2 C 14,0 C 0,0 km/h
18.10.2014 21:00 13,3 C 84 % 992,6 hPa 0,0 l/m 0,0 km/h O-NO 10,7 C 13,3 C 0,0 km/h
18.10.2014 22:00 12,9 C 85 % 992,4 hPa 0,0 l/m 0,0 km/h O-NO 10,4 C 12,9 C 0,0 km/h
18.10.2014 23:00 12,2 C 84 % 992,4 hPa 0,0 l/m 0,0 km/h SO 9,6 C 12,2 C 0,0 km/h
19.10.2014 00:00 11,8 C 85 % 993,1 hPa 0,0 l/m 1,4 km/h O-SO 9,4 C 11,8 C 1,4 km/h
19.10.2014 01:00 11,4 C 84 % 992,7 hPa 0,0 l/m 0,0 km/h SO 8,8 C 11,4 C 0,0 km/h
19.10.2014 02:00 10,9 C 84 % 992,4 hPa 0,0 l/m 0,0 km/h O-SO 8,3 C 10,9 C 0,0 km/h
19.10.2014 03:00 10,4 C 83 % 992,1 hPa 0,0 l/m 0,0 km/h O 7,6 C 10,4 C 0,0 km/h
19.10.2014 04:00 9,3 C 84 % 992,2 hPa 0,0 l/m 0,0 km/h O-SO 6,7 C 9,3 C 0,0 km/h
19.10.2014 05:00 9,0 C 84 % 992,1 hPa 0,0 l/m 0,0 km/h O 6,4 C 9,0 C 0,0 km/h
19.10.2014 06:00 9,5 C 82 % 991,8 hPa 0,0 l/m 0,0 km/h N-NO 6,6 C 9,5 C 0,0 km/h
19.10.2014 07:00 10,8 C 81 % 991,7 hPa 0,0 l/m 0,0 km/h O-SO 7,7 C 10,8 C 0,0 km/h
19.10.2014 08:00 10,9 C 79 % 992,4 hPa 0,0 l/m 0,0 km/h NW 7,4 C 10,9 C 0,0 km/h
19.10.2014 09:00 15,4 C 75 % 992,3 hPa 0,0 l/m 0,0 km/h SO 11,0 C 15,4 C 0,0 km/h
19.10.2014 10:00 23,4 C 73 % 992,5 hPa 0,0 l/m 0,0 km/h W 18,3 C 23,4 C 0,0 km/h
19.10.2014 11:00 28,5 C 55 % 992,6 hPa 0,0 l/m 0,0 km/h W-SW 18,6 C 28,5 C 0,0 km/h
19.10.2014 12:00 26,3 C 51 % 992,3 hPa 0,0 l/m 22,7 km/h W-SW 15,3 C 24,1 C 12,6 km/h
19.10.2014 13:00 26,1 C 51 % 991,7 hPa 0,0 l/m 15,6 km/h W-SW 15,2 C 24,6 C 8,6 km/h
19.10.2014 14:00 27,3 C 49 % 991,5 hPa 0,0 l/m 10,4 km/h S-SW 15,6 C 26,6 C 5,8 km/h
19.10.2014 15:00 26,9 C 48 % 991,1 hPa 0,0 l/m 7,8 km/h SW 14,9 C 26,6 C 4,3 km/h
19.10.2014 16:00 27,4 C 47 % 990,5 hPa 0,0 l/m 0,0 km/h S 15,1 C 27,4 C 0,0 km/h
19.10.2014 17:00 23,6 C 54 % 990,6 hPa 0,0 l/m 9,7 km/h S-SO 13,7 C 22,7 C 5,4 km/h
19.10.2014 18:00 19,9 C 63 % 991,0 hPa 0,0 l/m 0,0 km/h S-SO 12,6 C 19,9 C 0,0 km/h
19.10.2014 19:00 19,2 C 68 % 991,2 hPa 0,0 l/m 0,0 km/h N-NO 13,1 C 19,2 C 0,0 km/h
19.10.2014 20:00 17,2 C 74 % 991,7 hPa 0,0 l/m 0,0 km/h N-NO 12,5 C 17,2 C 0,0 km/h
19.10.2014 21:00 15,4 C 81 % 991,7 hPa 0,0 l/m 0,0 km/h N-NO 12,2 C 15,4 C 0,0 km/h
19.10.2014 22:00 15,3 C 82 % 991,9 hPa 0,0 l/m 1,1 km/h N 12,2 C 15,3 C 1,1 km/h
19.10.2014 23:00 15,1 C 83 % 992,0 hPa 0,0 l/m 0,0 km/h NO 12,2 C 15,1 C 0,0 km/h
Min-Datum _ 18.10.14 18.10.14 17.10.14 - 13.10.14 - 18.10.14 18.10.14 13.10.14
_ Min-Zeit 04:53 16:53 04:53 - 00:53 - 07:53 04:53 00:53
Minimum _ 8,1 C 47 % 977,4 hPa - 0,0 km/h - 5,4 C 8,1 C 0,0 km/h
Max-Datum _ 18.10.14 13.10.14 19.10.14 17.10.14 16.10.14 - 19.10.14 18.10.14 16.10.14
_ Max-Zeit 15:53 11:53 00:53 06:53 08:53 - 11:53 15:53 08:53
Maximum _ 30,4 C 85 % 993,1 hPa 1,9 l/m 29,2 km/h
S-SO
- 18,6 C 30,4 C 16,2 km/h
S-SO
Durchschnitt _ 16,1 C 76 % 984,2 hPa #6,4 l/m 2,0 km/h SO 11,5 C 15,8 C 1,2 km/h
www.sexauwetter.de